Time;durP1;ratioP1;P1;durP2;ratioP2;P2;SDS_P1;SDS_P2;PMS_P1;PMS_P2;Temp;Humidity;BMP_temperature;BMP_pressure;BME280_temperature;BME280_humidity;BME280_pressure;Samples;Min_cycle;Max_cycle;Signal;HPM_P1;HPM_P2
2023/03/12 00:01:21;;;;;;;5.95;3.10;;;;;;;;;;5020341;28;20033;-84
2023/03/12 00:03:47;;;;;;;5.32;3.20;;;;;;;;;;5037974;28;20044;-84
2023/03/12 00:06:13;;;;;;;7.40;3.53;;;;;;;;;;5020217;28;20040;-85
2023/03/12 00:08:39;;;;;;;8.50;4.10;;;;;;;;;;5037485;28;20405;-85
2023/03/12 00:11:10;;;;;;;7.32;3.58;;;;;;;;;;5019621;28;20040;-85
2023/03/12 00:13:37;;;;;;;6.90;3.33;;;;;;;;;;5019192;28;20033;-84
2023/03/12 00:16:08;;;;;;;8.57;3.53;;;;;;;;;;5001724;28;20504;-84
2023/03/12 00:18:33;;;;;;;6.88;3.70;;;;;;;;;;5018915;28;20072;-84
2023/03/12 00:20:59;;;;;;;6.13;3.60;;;;;;;;;;5036265;28;20049;-84
2023/03/12 00:23:25;;;;;;;6.78;3.70;;;;;;;;;;5018602;28;20041;-85
2023/03/12 00:25:50;;;;;;;6.22;3.83;;;;;;;;;;5034865;28;20447;-83
2023/03/12 00:28:16;;;;;;;8.35;4.45;;;;;;;;;;5046987;28;20050;-82
2023/03/12 00:30:42;;;;;;;8.43;4.70;;;;;;;;;;5023605;28;20509;-86
2023/03/12 00:33:09;;;;;;;6.40;4.15;;;;;;;;;;5020133;28;20060;-85
2023/03/12 00:35:39;;;;;;;8.07;3.85;;;;;;;;;;5019961;28;20033;-84
2023/03/12 00:38:04;;;;;;;11.20;4.25;;;;;;;;;;5039129;28;20045;-84
2023/03/12 00:40:30;;;;;;;8.60;4.18;;;;;;;;;;5019414;28;20055;-84
2023/03/12 00:42:55;;;;;;;7.88;3.90;;;;;;;;;;5019849;28;20107;-84
2023/03/12 00:45:21;;;;;;;9.10;4.50;;;;;;;;;;5020698;28;20061;-84
2023/03/12 00:47:46;;;;;;;7.47;4.03;;;;;;;;;;5037685;28;20029;-84
2023/03/12 00:50:12;;;;;;;6.18;3.70;;;;;;;;;;5004657;28;20030;-85
2023/03/12 00:52:37;;;;;;;7.22;3.63;;;;;;;;;;5021076;28;20021;-84
2023/03/12 00:55:03;;;;;;;7.10;3.60;;;;;;;;;;5039061;28;20033;-84
2023/03/12 00:57:28;;;;;;;6.60;3.50;;;;;;;;;;5021888;28;20458;-86
2023/03/12 00:59:54;;;;;;;8.55;4.18;;;;;;;;;;5021321;28;20030;-84
2023/03/12 01:02:19;;;;;;;7.63;4.18;;;;;;;;;;5039024;28;20039;-86
2023/03/12 01:04:45;;;;;;;7.60;4.20;;;;;;;;;;5020674;28;20522;-84
2023/03/12 01:07:11;;;;;;;9.23;4.55;;;;;;;;;;5020957;28;20029;-85
2023/03/12 01:09:36;;;;;;;7.97;4.60;;;;;;;;;;5021399;28;20103;-85
2023/03/12 01:12:02;;;;;;;10.05;5.45;;;;;;;;;;5038754;28;20036;-85
2023/03/12 01:14:27;;;;;;;30.80;11.98;;;;;;;;;;5004744;28;20033;-85
2023/03/12 01:16:53;;;;;;;18.40;8.55;;;;;;;;;;5038884;28;20037;-85
2023/03/12 01:19:19;;;;;;;16.88;7.88;;;;;;;;;;5021900;28;20038;-84
2023/03/12 01:21:44;;;;;;;13.18;6.03;;;;;;;;;;5020827;28;20036;-85
2023/03/12 01:24:10;;;;;;;11.55;6.25;;;;;;;;;;5021760;28;20064;-84
2023/03/12 01:26:35;;;;;;;9.35;4.03;;;;;;;;;;5004519;28;20132;-84
2023/03/12 01:29:01;;;;;;;5.72;3.33;;;;;;;;;;5020392;28;20033;-83
2023/03/12 01:31:26;;;;;;;5.65;3.28;;;;;;;;;;5020582;28;20037;-85
2023/03/12 01:33:53;;;;;;;9.00;4.72;;;;;;;;;;5027524;28;20036;-83
2023/03/12 01:36:20;;;;;;;9.00;4.47;;;;;;;;;;5016843;28;20034;-84
2023/03/12 01:38:46;;;;;;;9.30;5.07;;;;;;;;;;5016339;28;20043;-84
2023/03/12 01:41:12;;;;;;;7.40;4.22;;;;;;;;;;5016186;28;20049;-84
2023/03/12 01:43:38;;;;;;;8.73;4.55;;;;;;;;;;5027133;28;20037;-85
2023/03/12 01:46:24;;;;;;;8.15;4.05;;;;;;;;;;5037726;28;20048;-84
2023/03/12 01:49:10;;;;;;;9.20;4.30;;;;;;;;;;5020049;28;20055;-84
2023/03/12 01:51:50;;;;;;;9.15;3.95;;;;;;;;;;5020561;28;20034;-86
2023/03/12 01:54:24;;;;;;;7.95;3.78;;;;;;;;;;5004137;28;20041;-85
2023/03/12 01:56:50;;;;;;;9.63;4.03;;;;;;;;;;5007876;28;20037;-84
2023/03/12 01:59:22;;;;;;;8.07;4.07;;;;;;;;;;5008417;28;20370;-84
2023/03/12 02:01:48;;;;;;;7.13;4.07;;;;;;;;;;5025002;28;20041;-84
2023/03/12 02:04:16;;;;;;;7.63;4.15;;;;;;;;;;5025556;28;20030;-84
2023/03/12 02:06:53;;;;;;;9.68;4.93;;;;;;;;;;5047701;28;20029;-85
2023/03/12 02:09:20;;;;;;;9.88;4.15;;;;;;;;;;5029956;28;20040;-84
2023/03/12 02:11:47;;;;;;;6.32;3.97;;;;;;;;;;5028869;28;20029;-86
2023/03/12 02:14:12;;;;;;;7.88;4.00;;;;;;;;;;5027985;28;20124;-84
2023/03/12 02:16:38;;;;;;;6.70;3.88;;;;;;;;;;5028117;28;20101;-85
2023/03/12 02:19:15;;;;;;;7.82;4.10;;;;;;;;;;5028980;28;20034;-84
2023/03/12 02:21:41;;;;;;;7.25;4.05;;;;;;;;;;5028228;28;20034;-84
2023/03/12 02:24:35;;;;;;;6.25;3.80;;;;;;;;;;5028507;28;20513;-83
2023/03/12 02:27:01;;;;;;;6.15;3.58;;;;;;;;;;5011813;28;20516;-83
2023/03/12 02:29:31;;;;;;;7.40;3.55;;;;;;;;;;5028071;28;20036;-85
2023/03/12 02:32:01;;;;;;;7.63;3.58;;;;;;;;;;5026547;28;20462;-84
2023/03/12 02:34:27;;;;;;;7.07;4.25;;;;;;;;;;5024170;28;20040;-83
2023/03/12 02:36:52;;;;;;;6.95;4.15;;;;;;;;;;5024273;28;20033;-82
2023/03/12 02:39:18;;;;;;;6.03;3.60;;;;;;;;;;5032481;28;20049;-85
2023/03/12 02:42:04;;;;;;;6.68;3.40;;;;;;;;;;5026682;28;20030;-84
2023/03/12 02:44:32;;;;;;;5.75;3.58;;;;;;;;;;5025725;28;20045;-85
2023/03/12 02:47:00;;;;;;;5.45;3.15;;;;;;;;;;5021590;28;20037;-84
2023/03/12 02:49:29;;;;;;;6.65;3.72;;;;;;;;;;5020405;28;20186;-84
2023/03/12 02:51:54;;;;;;;6.55;3.30;;;;;;;;;;5037979;28;20033;-85
2023/03/12 02:54:22;;;;;;;6.55;3.35;;;;;;;;;;5018908;28;20068;-83
2023/03/12 02:56:49;;;;;;;6.85;2.95;;;;;;;;;;5018440;28;20546;-83
2023/03/12 02:59:15;;;;;;;8.05;3.13;;;;;;;;;;5032546;28;20060;-84
2023/03/12 03:01:43;;;;;;;5.20;3.22;;;;;;;;;;5026003;28;20044;-83
2023/03/12 03:04:10;;;;;;;7.03;3.28;;;;;;;;;;5024265;28;20029;-85
2023/03/12 03:06:39;;;;;;;5.55;3.20;;;;;;;;;;5024185;28;20516;-84
2023/03/12 03:09:05;;;;;;;6.30;3.50;;;;;;;;;;5024284;28;20040;-85
2023/03/12 03:11:31;;;;;;;7.45;3.47;;;;;;;;;;5024388;28;20097;-84
2023/03/12 03:13:58;;;;;;;5.68;3.30;;;;;;;;;;5024580;28;20064;-84
2023/03/12 03:16:24;;;;;;;4.95;2.90;;;;;;;;;;5043537;23;20056;-81
2023/03/12 03:18:50;;;;;;;6.28;3.40;;;;;;;;;;5057169;28;20037;-80
2023/03/12 03:21:16;;;;;;;6.88;3.20;;;;;;;;;;5038957;28;20029;-81
2023/03/12 03:23:47;;;;;;;6.93;3.17;;;;;;;;;;5023180;28;20040;-81
2023/03/12 03:26:13;;;;;;;5.53;2.97;;;;;;;;;;5057292;28;20033;-81
2023/03/12 03:28:39;;;;;;;6.05;3.30;;;;;;;;;;5056753;28;20021;-80
2023/03/12 03:31:05;;;;;;;5.00;3.20;;;;;;;;;;5039556;28;20044;-81
2023/03/12 03:33:35;;;;;;;6.07;2.90;;;;;;;;;;5039331;28;20044;-81
2023/03/12 03:36:03;;;;;;;5.43;3.28;;;;;;;;;;5038762;28;20527;-79
2023/03/12 03:38:33;;;;;;;5.25;2.80;;;;;;;;;;5038851;28;20033;-80
2023/03/12 03:41:00;;;;;;;6.63;3.10;;;;;;;;;;5038751;28;20056;-81
2023/03/12 03:43:26;;;;;;;5.25;3.00;;;;;;;;;;5039077;28;20033;-81
2023/03/12 03:46:00;;;;;;;4.90;3.00;;;;;;;;;;5038644;28;20043;-81
2023/03/12 03:48:26;;;;;;;8.07;2.92;;;;;;;;;;5038619;28;20036;-81
2023/03/12 03:50:51;;;;;;;6.80;2.88;;;;;;;;;;5038609;28;20037;-81
2023/03/12 03:53:18;;;;;;;6.90;3.00;;;;;;;;;;5038577;28;20644;-81
2023/03/12 03:55:44;;;;;;;6.22;3.03;;;;;;;;;;5022442;28;20040;-80
2023/03/12 03:58:10;;;;;;;5.53;2.90;;;;;;;;;;5021789;28;20021;-80
2023/03/12 04:00:35;;;;;;;7.10;2.85;;;;;;;;;;5038900;28;20040;-80
2023/03/12 04:03:01;;;;;;;5.57;3.20;;;;;;;;;;5038766;28;20402;-81
2023/03/12 04:05:27;;;;;;;5.63;3.03;;;;;;;;;;5037141;28;20025;-80
2023/03/12 04:07:53;;;;;;;5.68;3.00;;;;;;;;;;5037254;28;20120;-80
2023/03/12 04:10:23;;;;;;;7.28;3.13;;;;;;;;;;5038693;28;20437;-80
2023/03/12 04:12:49;;;;;;;5.95;3.17;;;;;;;;;;5037849;28;20083;-81
2023/03/12 04:15:15;;;;;;;5.63;3.13;;;;;;;;;;5038108;28;20025;-81
2023/03/12 04:17:41;;;;;;;4.57;3.17;;;;;;;;;;5037108;28;20067;-81
2023/03/12 04:20:09;;;;;;;4.95;2.80;;;;;;;;;;5038052;28;20044;-81
2023/03/12 04:22:36;;;;;;;5.63;3.10;;;;;;;;;;5045060;28;20582;-81
2023/03/12 04:25:03;;;;;;;4.43;3.15;;;;;;;;;;5054848;28;20033;-80
2023/03/12 04:27:29;;;;;;;6.97;2.80;;;;;;;;;;5054307;28;20528;-80
2023/03/12 04:29:54;;;;;;;7.47;2.80;;;;;;;;;;5055017;28;20037;-81
2023/03/12 04:32:20;;;;;;;4.55;2.90;;;;;;;;;;5055195;28;20044;-80
2023/03/12 04:34:46;;;;;;;6.10;2.92;;;;;;;;;;5054210;28;20040;-81
2023/03/12 04:37:15;;;;;;;6.35;2.83;;;;;;;;;;5054025;28;20040;-81
2023/03/12 04:39:43;;;;;;;5.43;2.80;;;;;;;;;;5054613;28;20040;-80
2023/03/12 04:42:09;;;;;;;4.80;3.00;;;;;;;;;;5054467;28;20036;-79
2023/03/12 04:44:36;;;;;;;4.63;3.00;;;;;;;;;;5054307;28;20036;-80
2023/03/12 04:47:03;;;;;;;7.20;3.05;;;;;;;;;;5048598;28;20047;-80
2023/03/12 04:49:29;;;;;;;4.43;2.70;;;;;;;;;;5055856;28;20087;-81
2023/03/12 04:51:55;;;;;;;6.22;2.80;;;;;;;;;;5021546;28;20029;-81
2023/03/12 04:54:21;;;;;;;5.43;2.97;;;;;;;;;;5055205;28;20570;-81
2023/03/12 04:56:48;;;;;;;4.70;2.90;;;;;;;;;;5037536;28;20050;-81
2023/03/12 04:59:13;;;;;;;5.82;2.72;;;;;;;;;;5038289;28;20080;-81
2023/03/12 05:01:41;;;;;;;5.28;2.80;;;;;;;;;;5037466;28;20028;-81
2023/03/12 05:04:13;;;;;;;5.70;3.15;;;;;;;;;;5021904;28;20033;-81
2023/03/12 05:06:39;;;;;;;4.50;3.00;;;;;;;;;;5037738;28;20447;-81
2023/03/12 05:09:04;;;;;;;4.95;3.00;;;;;;;;;;5037439;28;20119;-81
2023/03/12 05:11:30;;;;;;;6.68;3.03;;;;;;;;;;5021297;28;20448;-82
2023/03/12 05:13:56;;;;;;;4.72;2.78;;;;;;;;;;5054964;28;20041;-81
2023/03/12 05:16:22;;;;;;;6.70;2.80;;;;;;;;;;5036928;28;20044;-81
2023/03/12 05:18:48;;;;;;;5.75;2.90;;;;;;;;;;5037852;28;20086;-81
2023/03/12 05:21:16;;;;;;;7.40;2.95;;;;;;;;;;5037267;28;20402;-81
2023/03/12 05:23:43;;;;;;;5.50;3.08;;;;;;;;;;5037203;28;20158;-80
2023/03/12 05:26:22;;;;;;;5.72;3.00;;;;;;;;;;5037252;28;20025;-80
2023/03/12 05:28:49;;;;;;;5.00;2.95;;;;;;;;;;5036732;28;20055;-80
2023/03/12 05:31:16;;;;;;;6.47;3.20;;;;;;;;;;5037226;28;20029;-81
2023/03/12 05:33:44;;;;;;;5.97;3.42;;;;;;;;;;5037180;28;20033;-80
2023/03/12 05:36:10;;;;;;;7.53;4.22;;;;;;;;;;5036459;28;20124;-80
2023/03/12 05:38:36;;;;;;;9.68;4.80;;;;;;;;;;5020407;28;20119;-80
2023/03/12 05:41:03;;;;;;;9.30;4.28;;;;;;;;;;5037078;28;20029;-80
2023/03/12 05:43:33;;;;;;;9.05;4.30;;;;;;;;;;5037443;28;20033;-80
2023/03/12 05:46:03;;;;;;;6.47;3.25;;;;;;;;;;5036948;28;20114;-80
2023/03/12 05:48:30;;;;;;;6.18;3.17;;;;;;;;;;5037135;28;20041;-80
2023/03/12 05:50:56;;;;;;;6.68;4.32;;;;;;;;;;5036740;28;20044;-81
2023/03/12 05:53:23;;;;;;;6.78;3.60;;;;;;;;;;5020498;28;20497;-81
2023/03/12 05:55:48;;;;;;;6.88;3.47;;;;;;;;;;5036651;28;20037;-81
2023/03/12 05:58:14;;;;;;;6.45;3.95;;;;;;;;;;5036498;28;20036;-80
2023/03/12 06:00:43;;;;;;;7.97;4.03;;;;;;;;;;5020712;28;20025;-80
2023/03/12 06:03:09;;;;;;;6.60;4.00;;;;;;;;;;5036642;28;20028;-80
2023/03/12 06:05:35;;;;;;;8.52;3.63;;;;;;;;;;5036302;28;20424;-80
2023/03/12 06:08:02;;;;;;;9.15;5.50;;;;;;;;;;5055307;28;20039;-80
2023/03/12 06:10:28;;;;;;;10.52;5.63;;;;;;;;;;5037446;28;20037;-81
2023/03/12 06:12:54;;;;;;;8.98;5.75;;;;;;;;;;5037113;28;20120;-81
2023/03/12 06:15:20;;;;;;;13.00;6.47;;;;;;;;;;5036050;28;20421;-80
2023/03/12 06:17:46;;;;;;;11.75;7.50;;;;;;;;;;5036336;28;20025;-80
2023/03/12 06:20:11;;;;;;;13.77;7.97;;;;;;;;;;5036796;28;20044;-81
2023/03/12 06:22:37;;;;;;;11.40;6.90;;;;;;;;;;5054406;28;20051;-81
2023/03/12 06:25:04;;;;;;;8.55;5.43;;;;;;;;;;5036335;28;20032;-80
2023/03/12 06:27:30;;;;;;;9.10;4.97;;;;;;;;;;5036456;28;20087;-81
2023/03/12 06:29:56;;;;;;;9.57;4.80;;;;;;;;;;5055177;28;20126;-81
2023/03/12 06:32:21;;;;;;;8.75;5.07;;;;;;;;;;5036180;28;20481;-81
2023/03/12 06:34:47;;;;;;;8.77;5.18;;;;;;;;;;5054003;28;20036;-81
2023/03/12 06:37:12;;;;;;;7.60;4.55;;;;;;;;;;5036271;28;20525;-80
2023/03/12 06:39:38;;;;;;;7.10;4.50;;;;;;;;;;5055071;28;20033;-79
2023/03/12 06:42:04;;;;;;;6.55;4.13;;;;;;;;;;5057852;28;20032;-79
2023/03/12 06:44:30;;;;;;;8.85;5.50;;;;;;;;;;5058775;28;20031;-81
2023/03/12 06:46:56;;;;;;;8.50;4.90;;;;;;;;;;5059116;28;20104;-79
2023/03/12 06:49:22;;;;;;;7.00;4.20;;;;;;;;;;5059049;28;20503;-79
2023/03/12 06:51:48;;;;;;;11.77;4.90;;;;;;;;;;5058031;28;20456;-80
2023/03/12 06:54:14;;;;;;;11.38;6.55;;;;;;;;;;5058935;28;20033;-80
2023/03/12 06:56:40;;;;;;;10.73;5.82;;;;;;;;;;5040965;28;20056;-80
2023/03/12 06:59:06;;;;;;;13.23;6.00;;;;;;;;;;5058692;28;20037;-79
2023/03/12 07:01:31;;;;;;;9.77;4.75;;;;;;;;;;5058008;28;20086;-79
2023/03/12 07:03:57;;;;;;;15.05;6.25;;;;;;;;;;5058739;28;20036;-79
2023/03/12 07:06:23;;;;;;;10.68;4.88;;;;;;;;;;5057598;28;20601;-79
2023/03/12 07:08:49;;;;;;;9.27;4.40;;;;;;;;;;5058264;28;20037;-79
2023/03/12 07:11:15;;;;;;;8.70;5.05;;;;;;;;;;5058951;28;20163;-80
2023/03/12 07:13:41;;;;;;;13.07;5.57;;;;;;;;;;5058871;28;20029;-80
2023/03/12 07:16:07;;;;;;;15.32;6.60;;;;;;;;;;5057723;28;20400;-79
2023/03/12 07:18:32;;;;;;;9.38;4.28;;;;;;;;;;5056885;28;20029;-79
2023/03/12 07:20:58;;;;;;;5.25;3.35;;;;;;;;;;5056888;28;20024;-81
2023/03/12 07:23:24;;;;;;;6.78;3.83;;;;;;;;;;5055597;28;20131;-81
2023/03/12 07:25:49;;;;;;;11.13;6.35;;;;;;;;;;5056017;28;20424;-80
2023/03/12 07:28:15;;;;;;;9.85;5.43;;;;;;;;;;5054952;28;20037;-79
2023/03/12 07:30:41;;;;;;;6.85;4.07;;;;;;;;;;5058322;28;20040;-79
2023/03/12 07:33:11;;;;;;;7.80;3.92;;;;;;;;;;5058553;28;20161;-80
2023/03/12 07:35:38;;;;;;;5.03;3.38;;;;;;;;;;5044377;28;20024;-78
2023/03/12 07:38:04;;;;;;;5.32;3.35;;;;;;;;;;5055494;28;20096;-78
2023/03/12 07:40:30;;;;;;;6.25;3.40;;;;;;;;;;5054392;28;20032;-79
2023/03/12 07:42:56;;;;;;;8.88;4.18;;;;;;;;;;5054482;28;20029;-79
2023/03/12 07:45:22;;;;;;;5.82;3.45;;;;;;;;;;5053710;28;20112;-78
2023/03/12 07:47:48;;;;;;;6.65;3.90;;;;;;;;;;5054550;28;20061;-78
2023/03/12 07:50:14;;;;;;;5.55;3.33;;;;;;;;;;5054153;28;20190;-78
2023/03/12 07:52:40;;;;;;;7.00;3.72;;;;;;;;;;5054039;28;20040;-78
2023/03/12 07:55:06;;;;;;;7.05;3.70;;;;;;;;;;5043321;28;20033;-79
2023/03/12 07:57:31;;;;;;;5.07;3.40;;;;;;;;;;5077015;28;20062;-81
2023/03/12 07:59:57;;;;;;;4.68;2.60;;;;;;;;;;5073872;28;20036;-81
2023/03/12 08:02:22;;;;;;;7.45;3.15;;;;;;;;;;5077283;28;20039;-81
2023/03/12 08:04:48;;;;;;;7.43;3.15;;;;;;;;;;5057521;28;20441;-80
2023/03/12 08:07:14;;;;;;;4.40;2.80;;;;;;;;;;5057279;28;20033;-81
2023/03/12 08:09:40;;;;;;;4.72;2.63;;;;;;;;;;5075597;28;20036;-80
2023/03/12 08:12:06;;;;;;;4.97;2.50;;;;;;;;;;5057941;28;20039;-80
2023/03/12 08:14:32;;;;;;;4.05;2.65;;;;;;;;;;5065820;28;20029;-81
2023/03/12 08:16:58;;;;;;;3.30;2.38;;;;;;;;;;5064514;28;20393;-80
2023/03/12 08:19:25;;;;;;;5.30;2.60;;;;;;;;;;5060373;28;20040;-80
2023/03/12 08:21:52;;;;;;;3.85;2.42;;;;;;;;;;5038078;28;20039;-82
2023/03/12 08:24:19;;;;;;;5.65;2.35;;;;;;;;;;5066229;28;20028;-81
2023/03/12 08:26:44;;;;;;;5.97;2.78;;;;;;;;;;5078584;28;20047;-81
2023/03/12 08:29:10;;;;;;;6.72;3.00;;;;;;;;;;5078009;28;20064;-82
2023/03/12 08:31:36;;;;;;;4.93;2.90;;;;;;;;;;5043988;28;20033;-80
2023/03/12 08:34:01;;;;;;;8.43;4.75;;;;;;;;;;5060386;28;20056;-83
2023/03/12 08:36:26;;;;;;;12.43;6.40;;;;;;;;;;5060927;28;20040;-81
2023/03/12 08:38:52;;;;;;;11.70;5.13;;;;;;;;;;5078388;28;20089;-82
2023/03/12 08:41:17;;;;;;;8.30;4.40;;;;;;;;;;5077222;28;20044;-82
2023/03/12 08:43:43;;;;;;;8.25;5.10;;;;;;;;;;5076428;28;20032;-82
2023/03/12 08:46:08;;;;;;;9.48;5.68;;;;;;;;;;5076524;28;20080;-83
2023/03/12 08:48:34;;;;;;;8.15;4.93;;;;;;;;;;5075979;28;20041;-82
2023/03/12 08:51:03;;;;;;;6.07;4.18;;;;;;;;;;5076231;28;20079;-82
2023/03/12 08:53:29;;;;;;;6.95;3.78;;;;;;;;;;5059562;28;20043;-82
2023/03/12 08:55:55;;;;;;;6.57;4.20;;;;;;;;;;5059286;28;20032;-81
2023/03/12 08:58:22;;;;;;;6.50;4.30;;;;;;;;;;5059134;28;20039;-82
2023/03/12 09:00:47;;;;;;;7.43;4.03;;;;;;;;;;5077336;28;20036;-81
2023/03/12 09:03:13;;;;;;;5.68;3.70;;;;;;;;;;5059211;28;20033;-82
2023/03/12 09:05:42;;;;;;;5.95;4.00;;;;;;;;;;5076878;28;20059;-82
2023/03/12 09:08:09;;;;;;;7.03;4.43;;;;;;;;;;5076930;28;20059;-83
2023/03/12 09:10:34;;;;;;;5.63;3.85;;;;;;;;;;5077073;28;20036;-82
2023/03/12 09:13:01;;;;;;;6.90;4.75;;;;;;;;;;5077972;28;20576;-82
2023/03/12 09:15:27;;;;;;;6.03;3.72;;;;;;;;;;5076353;28;20040;-82
2023/03/12 09:17:54;;;;;;;5.40;3.92;;;;;;;;;;5054108;23;20048;-85
2023/03/12 09:20:20;;;;;;;6.93;3.80;;;;;;;;;;5074641;28;20059;-83
2023/03/12 09:22:47;;;;;;;8.90;4.57;;;;;;;;;;5075125;28;20060;-83
2023/03/12 09:25:13;;;;;;;7.30;4.07;;;;;;;;;;5056840;28;20051;-84
2023/03/12 09:27:44;;;;;;;5.72;3.50;;;;;;;;;;5074522;28;20373;-84
2023/03/12 09:30:12;;;;;;;6.03;3.63;;;;;;;;;;5057580;28;20047;-85
2023/03/12 09:32:38;;;;;;;5.35;3.40;;;;;;;;;;5057473;28;20028;-85
2023/03/12 09:35:05;;;;;;;12.80;6.47;;;;;;;;;;5057127;28;20044;-84
2023/03/12 09:37:31;;;;;;;13.82;6.03;;;;;;;;;;5075913;28;20064;-87
2023/03/12 09:39:57;;;;;;;11.82;5.03;;;;;;;;;;5077443;28;20082;-83
2023/03/12 09:42:29;;;;;;;6.32;3.83;;;;;;;;;;5077589;28;20048;-83
2023/03/12 09:44:59;;;;;;;11.23;5.25;;;;;;;;;;5057577;28;20052;-87
2023/03/12 09:47:29;;;;;;;10.27;5.40;;;;;;;;;;5075412;28;20039;-86
2023/03/12 09:50:14;;;;;;;7.30;4.53;;;;;;;;;;5076557;28;20040;-85
2023/03/12 09:52:52;;;;;;;5.68;3.10;;;;;;;;;;5076805;28;20029;-86
2023/03/12 09:55:21;;;;;;;4.47;3.20;;;;;;;;;;5076663;28;20389;-85
2023/03/12 09:57:50;;;;;;;5.20;3.30;;;;;;;;;;5075607;28;20033;-86
2023/03/12 10:00:25;;;;;;;9.20;4.13;;;;;;;;;;5075561;28;20221;-85
2023/03/12 10:03:03;;;;;;;7.07;3.30;;;;;;;;;;5075239;28;20047;-87
2023/03/12 10:05:28;;;;;;;5.53;3.33;;;;;;;;;;5076019;28;20187;-85
2023/03/12 10:08:05;;;;;;;7.03;3.70;;;;;;;;;;5056738;28;20138;-84
2023/03/12 10:10:54;;;;;;;4.78;3.00;;;;;;;;;;5074449;28;20047;-87
2023/03/12 10:13:32;;;;;;;4.80;3.03;;;;;;;;;;5048526;28;20070;-84
2023/03/12 10:16:00;;;;;;;3.47;2.55;;;;;;;;;;5075211;28;20036;-83
2023/03/12 10:18:46;;;;;;;4.82;2.70;;;;;;;;;;5059252;28;20025;-85
2023/03/12 10:21:47;;;;;;;4.40;2.50;;;;;;;;;;5058066;28;20040;-86
2023/03/12 10:24:30;;;;;;;3.45;2.17;;;;;;;;;;5054105;28;20055;-83
2023/03/12 10:26:57;;;;;;;4.00;2.30;;;;;;;;;;5080712;28;20036;-86
2023/03/12 10:29:26;;;;;;;4.45;2.90;;;;;;;;;;5060232;28;20386;-86
2023/03/12 10:31:55;;;;;;;8.35;4.45;;;;;;;;;;5079307;28;20039;-86
2023/03/12 10:34:31;;;;;;;5.68;2.85;;;;;;;;;;5078612;28;20044;-85
2023/03/12 10:37:23;;;;;;;6.13;3.30;;;;;;;;;;5078276;28;20040;-85
2023/03/12 10:39:50;;;;;;;4.72;2.80;;;;;;;;;;5058935;28;20068;-85
2023/03/12 10:42:25;;;;;;;4.45;2.90;;;;;;;;;;5078110;28;20037;-86
2023/03/12 10:44:55;;;;;;;5.20;2.78;;;;;;;;;;5077549;28;20181;-84
2023/03/12 10:47:33;;;;;;;3.25;2.35;;;;;;;;;;5078598;28;20535;-86
2023/03/12 10:50:23;;;;;;;4.43;2.70;;;;;;;;;;5078431;28;20029;-84
2023/03/12 10:52:51;;;;;;;4.47;2.70;;;;;;;;;;5078283;28;20504;-86
2023/03/12 10:55:29;;;;;;;3.25;2.33;;;;;;;;;;5078446;28;20030;-84
2023/03/12 10:57:55;;;;;;;3.55;2.60;;;;;;;;;;5060510;28;20496;-86
2023/03/12 11:00:26;;;;;;;6.05;3.00;;;;;;;;;;5078837;28;20044;-86
2023/03/12 11:03:02;;;;;;;6.20;3.95;;;;;;;;;;5078318;28;20037;-84
2023/03/12 11:05:33;;;;;;;4.50;3.10;;;;;;;;;;5078520;28;20036;-83
2023/03/12 11:08:00;;;;;;;7.70;4.45;;;;;;;;;;5060466;28;20485;-85
2023/03/12 11:10:40;;;;;;;7.47;4.22;;;;;;;;;;5077746;28;20116;-87
2023/03/12 11:13:23;;;;;;;4.30;2.97;;;;;;;;;;5077441;28;20036;-85
2023/03/12 11:15:50;;;;;;;5.47;2.42;;;;;;;;;;5059487;28;20448;-83
2023/03/12 11:18:31;;;;;;;3.50;2.40;;;;;;;;;;5066037;28;20056;-85
2023/03/12 11:21:10;;;;;;;4.47;2.60;;;;;;;;;;5076238;28;20051;-85
2023/03/12 11:23:39;;;;;;;4.35;2.95;;;;;;;;;;5058531;28;20055;-83
2023/03/12 11:26:21;;;;;;;4.30;2.75;;;;;;;;;;5058473;28;20040;-87
2023/03/12 11:28:50;;;;;;;9.35;5.40;;;;;;;;;;5056358;28;20128;-85
2023/03/12 11:31:26;;;;;;;9.73;6.25;;;;;;;;;;5075213;28;20044;-84
2023/03/12 11:33:56;;;;;;;10.57;6.20;;;;;;;;;;5056811;28;20040;-84
2023/03/12 11:36:33;;;;;;;4.78;2.90;;;;;;;;;;5074245;28;20519;-82
2023/03/12 11:39:17;;;;;;;3.47;2.50;;;;;;;;;;5067652;28;20075;-84
2023/03/12 11:41:42;;;;;;;3.05;2.35;;;;;;;;;;5077612;28;20075;-83
2023/03/12 11:44:34;;;;;;;7.95;4.28;;;;;;;;;;5076658;28;20032;-85
2023/03/12 11:47:27;;;;;;;5.88;3.25;;;;;;;;;;5058730;28;20040;-85
2023/03/12 11:50:14;;;;;;;5.22;2.50;;;;;;;;;;5058680;28;20504;-83
2023/03/12 11:53:17;;;;;;;3.92;2.30;;;;;;;;;;5077063;28;20032;-85
2023/03/12 11:56:17;;;;;;;3.60;2.28;;;;;;;;;;5076043;28;20116;-83
2023/03/12 11:59:03;;;;;;;3.55;2.40;;;;;;;;;;5076839;28;20028;-85
2023/03/12 12:02:13;;;;;;;2.72;2.08;;;;;;;;;;5076144;28;20044;-85
2023/03/12 12:05:06;;;;;;;2.83;1.60;;;;;;;;;;5058638;28;20083;-86
2023/03/12 12:07:59;;;;;;;5.15;3.00;;;;;;;;;;5077206;28;20036;-85
2023/03/12 12:10:44;;;;;;;4.57;2.80;;;;;;;;;;5059707;28;20040;-85
2023/03/12 12:13:25;;;;;;;2.70;1.83;;;;;;;;;;5059026;28;20130;-86
2023/03/12 12:15:58;;;;;;;7.00;2.20;;;;;;;;;;5058896;28;20036;-88
2023/03/12 12:18:42;;;;;;;7.88;3.95;;;;;;;;;;5059293;28;20104;-86
2023/03/12 12:21:35;;;;;;;6.38;2.92;;;;;;;;;;5084272;28;20028;-87
2023/03/12 12:24:04;;;;;;;4.05;2.55;;;;;;;;;;5041193;28;20135;-85
2023/03/12 12:26:37;;;;;;;3.20;2.35;;;;;;;;;;5057802;28;20040;-86
2023/03/12 12:29:21;;;;;;;5.25;2.92;;;;;;;;;;5076376;28;20037;-86
2023/03/12 12:31:51;;;;;;;3.70;2.35;;;;;;;;;;5057764;28;20036;-86
2023/03/12 12:34:25;;;;;;;2.97;2.30;;;;;;;;;;5075225;28;20546;-87
2023/03/12 12:37:18;;;;;;;5.40;3.67;;;;;;;;;;5056874;28;20044;-86
2023/03/12 12:40:16;;;;;;;2.70;2.10;;;;;;;;;;5055768;28;20128;-87
2023/03/12 12:42:54;;;;;;;5.60;3.70;;;;;;;;;;5069489;28;20057;-86
2023/03/12 12:45:21;;;;;;;5.05;3.30;;;;;;;;;;5075087;28;20087;-87
2023/03/12 12:48:01;;;;;;;3.47;2.42;;;;;;;;;;5076863;28;20094;-85
2023/03/12 12:50:32;;;;;;;3.58;2.50;;;;;;;;;;5058148;28;20094;-85
2023/03/12 12:53:40;;;;;;;11.85;6.32;;;;;;;;;;5081906;28;20093;-86
2023/03/12 12:56:27;;;;;;;5.10;3.20;;;;;;;;;;5037127;28;20094;-85
2023/03/12 12:59:05;;;;;;;5.38;3.22;;;;;;;;;;5056939;28;20055;-85
2023/03/12 13:01:32;;;;;;;16.25;7.28;;;;;;;;;;5056572;28;20044;-86
2023/03/12 13:04:05;;;;;;;5.97;3.50;;;;;;;;;;5057447;28;20040;-83
2023/03/12 13:07:02;;;;;;;12.73;6.00;;;;;;;;;;5057868;28;20123;-86
2023/03/12 13:09:43;;;;;;;21.73;8.10;;;;;;;;;;5057714;28;20036;-85
2023/03/12 13:12:47;;;;;;;22.60;8.98;;;;;;;;;;5058258;28;20033;-86
2023/03/12 13:15:28;;;;;;;4.97;3.03;;;;;;;;;;5057263;28;20033;-84
2023/03/12 13:17:53;;;;;;;8.07;5.97;;;;;;;;;;5075875;28;20025;-87
2023/03/12 13:20:20;;;;;;;7.05;5.45;;;;;;;;;;5075400;28;20051;-85
2023/03/12 13:23:04;;;;;;;6.95;3.17;;;;;;;;;;5076391;28;20033;-84
2023/03/12 13:25:46;;;;;;;5.15;3.20;;;;;;;;;;5080849;28;20036;-84
2023/03/12 13:28:39;;;;;;;3.90;2.63;;;;;;;;;;5056105;28;20041;-86
2023/03/12 13:31:14;;;;;;;5.93;3.28;;;;;;;;;;5056791;28;20040;-85
2023/03/12 13:33:47;;;;;;;7.35;3.40;;;;;;;;;;5041314;28;20120;-86
2023/03/12 13:36:15;;;;;;;2.92;1.70;;;;;;;;;;5074147;28;20028;-84
2023/03/12 13:38:58;;;;;;;4.20;1.90;;;;;;;;;;5056148;28;20028;-85
2023/03/12 13:41:45;;;;;;;4.47;3.03;;;;;;;;;;5074692;28;20496;-88
2023/03/12 13:44:26;;;;;;;6.43;3.65;;;;;;;;;;5074079;28;20032;-86
2023/03/12 13:47:10;;;;;;;2.75;1.63;;;;;;;;;;5057226;28;20512;-84
2023/03/12 13:49:44;;;;;;;;;;;;;;;;;;5076370;28;20048;-85
2023/03/12 13:52:13;;;;;;;2.95;1.85;;;;;;;;;;5063714;28;20380;-87
2023/03/12 13:54:45;;;;;;;3.88;1.73;;;;;;;;;;5081107;28;20048;-86
2023/03/12 13:57:31;;;;;;;3.55;1.85;;;;;;;;;;5081748;28;20043;-86
2023/03/12 13:59:58;;;;;;;5.90;2.42;;;;;;;;;;5065432;28;20515;-84
2023/03/12 14:02:35;;;;;;;3.30;1.58;;;;;;;;;;5080127;28;20020;-85
2023/03/12 14:05:08;;;;;;;2.50;1.73;;;;;;;;;;5061866;28;20127;-84
2023/03/12 14:08:05;;;;;;;3.28;2.03;;;;;;;;;;5079375;28;20503;-85
2023/03/12 14:10:54;;;;;;;1.17;0.70;;;;;;;;;;5079296;28;20067;-87
2023/03/12 14:13:31;;;;;;;3.72;1.08;;;;;;;;;;5079161;28;20028;-85
2023/03/12 14:16:32;;;;;;;2.15;1.02;;;;;;;;;;5079009;28;20036;-86
2023/03/12 14:18:58;;;;;;;1.55;1.05;;;;;;;;;;5080340;28;20029;-85
2023/03/12 14:21:32;;;;;;;2.45;0.98;;;;;;;;;;5081801;28;20067;-85
2023/03/12 14:23:59;;;;;;;2.17;1.00;;;;;;;;;;5080480;28;20071;-84
2023/03/12 14:26:30;;;;;;;2.97;1.50;;;;;;;;;;5060365;28;20082;-83
2023/03/12 14:29:03;;;;;;;2.05;1.20;;;;;;;;;;5070756;28;20127;-86
2023/03/12 14:31:29;;;;;;;2.08;0.90;;;;;;;;;;5062551;28;20040;-88
2023/03/12 14:34:06;;;;;;;4.60;1.20;;;;;;;;;;5061838;28;20102;-83
2023/03/12 14:36:40;;;;;;;2.42;1.20;;;;;;;;;;5059658;28;20047;-86
2023/03/12 14:39:36;;;;;;;1.98;1.30;;;;;;;;;;5072061;28;20032;-88
2023/03/12 14:42:04;;;;;;;3.88;1.60;;;;;;;;;;5061885;28;20090;-89
2023/03/12 14:44:32;;;;;;;5.82;2.50;;;;;;;;;;5061029;28;20615;-88
2023/03/12 14:47:10;;;;;;;3.83;2.10;;;;;;;;;;5061762;28;20104;-88
2023/03/12 14:49:45;;;;;;;2.90;1.70;;;;;;;;;;5081686;28;20048;-86
2023/03/12 14:52:33;;;;;;;2.90;1.83;;;;;;;;;;5063652;28;20043;-85
2023/03/12 14:55:12;;;;;;;1.92;1.10;;;;;;;;;;5063038;28;20541;-87
2023/03/12 14:57:37;;;;;;;2.88;1.40;;;;;;;;;;5062563;28;20035;-85
2023/03/12 15:00:06;;;;;;;3.60;1.70;;;;;;;;;;5081397;28;20040;-86
2023/03/12 15:02:32;;;;;;;5.53;1.92;;;;;;;;;;5079470;28;20178;-88
2023/03/12 15:05:00;;;;;;;3.58;1.90;;;;;;;;;;5078813;28;20079;-88